createdAt,value
2022-09-07T00:02:09.354Z,18.07
2022-09-07T00:04:54.535Z,18.08
2022-09-07T00:07:39.812Z,18.09
2022-09-07T00:10:25.974Z,18.07
2022-09-07T00:13:11.216Z,18.01
2022-09-07T00:15:56.986Z,17.94
2022-09-07T00:18:46.058Z,17.88
2022-09-07T00:21:32.889Z,17.82
2022-09-07T00:24:18.316Z,17.76
2022-09-07T00:27:03.504Z,17.71
2022-09-07T00:29:48.823Z,17.68
2022-09-07T00:32:34.030Z,17.64
2022-09-07T00:35:19.350Z,17.58
2022-09-07T00:38:04.442Z,17.55
2022-09-07T00:40:50.123Z,17.48
2022-09-07T00:43:42.071Z,17.43
2022-09-07T00:46:29.438Z,17.41
2022-09-07T00:49:21.046Z,17.36
2022-09-07T00:52:08.371Z,17.34
2022-09-07T00:54:58.955Z,17.30
2022-09-07T00:57:49.273Z,17.25
2022-09-07T01:00:34.941Z,17.21
2022-09-07T01:03:25.848Z,17.19
2022-09-07T01:06:21.720Z,17.17
2022-09-07T01:09:18.218Z,17.13
2022-09-07T01:12:05.164Z,17.07
2022-09-07T01:14:53.095Z,17.06
2022-09-07T01:18:06.419Z,17.06
2022-09-07T01:21:10.315Z,17.04
2022-09-07T01:24:08.314Z,17.00
2022-09-07T01:27:27.974Z,16.95
2022-09-07T01:30:17.529Z,16.93
2022-09-07T01:33:18.346Z,16.89
2022-09-07T01:36:16.013Z,16.85
2022-09-07T01:39:05.760Z,16.81
2022-09-07T01:42:08.585Z,16.76
2022-09-07T01:44:57.885Z,16.74
2022-09-07T01:47:59.437Z,16.67
2022-09-07T01:50:56.085Z,16.65
2022-09-07T01:53:54.506Z,16.63
2022-09-07T01:56:44.573Z,16.59
2022-09-07T01:59:32.754Z,16.60
2022-09-07T02:02:24.533Z,16.58
2022-09-07T02:05:17.224Z,16.56
2022-09-07T02:08:11.815Z,16.54
2022-09-07T02:11:05.022Z,16.51
2022-09-07T02:14:00.389Z,16.50
2022-09-07T02:16:59.862Z,16.47
2022-09-07T02:19:51.911Z,16.43
2022-09-07T02:22:42.143Z,16.42
2022-09-07T02:25:32.869Z,16.38
2022-09-07T02:28:24.465Z,16.39
2022-09-07T02:31:10.279Z,16.34
2022-09-07T02:33:56.097Z,16.32
2022-09-07T02:36:45.695Z,16.31
2022-09-07T02:39:31.070Z,16.32
2022-09-07T02:42:16.379Z,16.31
2022-09-07T02:45:05.835Z,16.27
2022-09-07T02:48:11.380Z,16.23
2022-09-07T02:51:11.133Z,16.20
2022-09-07T02:54:38.525Z,16.17
2022-09-07T02:57:43.094Z,16.11
2022-09-07T03:00:33.937Z,16.10
2022-09-07T03:03:43.888Z,16.08
2022-09-07T03:06:36.230Z,16.04
2022-09-07T03:09:28.183Z,16.03
2022-09-07T03:12:14.285Z,16.02
2022-09-07T03:14:59.664Z,15.98
2022-09-07T03:17:45.401Z,15.98
2022-09-07T03:20:30.855Z,15.96
2022-09-07T03:23:16.348Z,15.94
2022-09-07T03:26:01.433Z,15.92
2022-09-07T03:28:47.679Z,15.91
2022-09-07T03:31:33.626Z,15.89
2022-09-07T03:34:19.038Z,15.86
2022-09-07T03:37:04.255Z,15.83
2022-09-07T03:39:49.624Z,15.81
2022-09-07T03:42:35.539Z,15.78
2022-09-07T03:45:20.917Z,15.75
2022-09-07T03:48:06.107Z,15.72
2022-09-07T03:51:03.440Z,15.73
2022-09-07T03:53:48.935Z,15.70
2022-09-07T03:56:34.741Z,15.68
2022-09-07T03:59:20.184Z,15.68
2022-09-07T04:02:05.511Z,15.63
2022-09-07T04:04:50.731Z,15.60
2022-09-07T04:07:35.756Z,15.59
2022-09-07T04:10:21.025Z,15.60
2022-09-07T04:13:06.961Z,15.60
2022-09-07T04:15:53.952Z,15.61
2022-09-07T04:18:39.618Z,15.60
2022-09-07T04:21:27.904Z,15.59
2022-09-07T04:24:17.303Z,15.59
2022-09-07T04:27:02.363Z,15.57
2022-09-07T04:29:47.696Z,15.60
2022-09-07T04:32:33.218Z,15.59
2022-09-07T04:35:18.518Z,15.58
2022-09-07T04:38:04.301Z,15.59
2022-09-07T04:40:49.554Z,15.54
2022-09-07T04:43:34.919Z,15.52
2022-09-07T04:46:37.259Z,15.52
2022-09-07T04:49:24.738Z,15.50
2022-09-07T04:52:10.245Z,15.49
2022-09-07T04:54:56.058Z,15.52
2022-09-07T04:57:41.345Z,15.47
2022-09-07T05:00:27.402Z,15.50
2022-09-07T05:03:14.666Z,15.47
2022-09-07T05:06:05.164Z,15.44
2022-09-07T05:08:52.515Z,15.44
2022-09-07T05:11:38.049Z,15.44
2022-09-07T05:14:23.471Z,15.47
2022-09-07T05:17:08.892Z,15.46
2022-09-07T05:19:54.863Z,15.45
2022-09-07T05:22:41.109Z,15.46
2022-09-07T05:25:31.326Z,15.52
2022-09-07T05:28:19.468Z,15.56
2022-09-07T05:37:08.357Z,15.71
2022-09-07T05:39:56.889Z,15.80
2022-09-07T05:42:42.551Z,15.88
2022-09-07T05:45:28.106Z,15.92
2022-09-07T05:48:13.320Z,15.91
2022-09-07T05:51:01.999Z,15.88
2022-09-07T05:53:48.798Z,15.87
2022-09-07T05:56:35.834Z,15.94
2022-09-07T05:59:21.049Z,16.00
2022-09-07T06:02:07.204Z,16.11
2022-09-07T06:04:52.534Z,16.22
2022-09-07T06:07:37.942Z,16.27
2022-09-07T06:13:28.579Z,16.29
2022-09-07T06:16:15.114Z,16.32
2022-09-07T06:19:05.919Z,16.38
2022-09-07T06:21:51.394Z,16.50
2022-09-07T06:24:36.590Z,16.53
2022-09-07T06:27:21.791Z,16.58
2022-09-07T06:30:07.522Z,16.73
2022-09-07T06:32:52.795Z,16.89
2022-09-07T06:35:38.088Z,17.01
2022-09-07T06:38:35.974Z,17.24
2022-09-07T06:44:38.615Z,17.38
2022-09-07T06:47:23.956Z,17.19
2022-09-07T06:50:10.005Z,17.11
2022-09-07T06:56:01.945Z,17.01
2022-09-07T06:58:47.254Z,16.94
2022-09-07T07:01:33.738Z,17.01
2022-09-07T07:04:19.218Z,17.26
2022-09-07T07:07:04.273Z,17.41
2022-09-07T07:09:50.191Z,17.66
2022-09-07T07:15:25.021Z,17.81
2022-09-07T07:18:20.965Z,17.86
2022-09-07T07:21:09.838Z,17.90
2022-09-07T07:23:55.414Z,18.01
2022-09-07T07:26:43.934Z,18.21
2022-09-07T07:29:29.287Z,18.38
2022-09-07T07:32:14.258Z,18.32
2022-09-07T07:34:59.747Z,18.24
2022-09-07T07:37:45.010Z,18.23
2022-09-07T07:40:31.823Z,18.47
2022-09-07T07:43:18.236Z,18.67
2022-09-07T07:46:06.142Z,18.43
2022-09-07T07:48:52.255Z,18.54
2022-09-07T07:54:43.715Z,18.66
2022-09-07T07:57:29.446Z,18.42
2022-09-07T08:00:23.563Z,18.43
2022-09-07T08:03:17.372Z,18.71
2022-09-07T08:06:16.695Z,18.98
2022-09-07T08:09:01.983Z,19.30
2022-09-07T08:11:47.498Z,19.61
2022-09-07T08:14:32.606Z,19.77
2022-09-07T08:17:18.220Z,19.83
2022-09-07T08:20:04.077Z,19.96
2022-09-07T08:22:50.955Z,19.89
2022-09-07T08:25:36.748Z,19.93
2022-09-07T08:28:23.697Z,19.94
2022-09-07T08:31:12.279Z,19.77
2022-09-07T08:33:59.537Z,19.89
2022-09-07T08:36:45.236Z,20.07
2022-09-07T08:39:31.054Z,20.28
2022-09-07T08:42:26.746Z,20.44
2022-09-07T08:45:28.318Z,20.16
2022-09-07T08:48:20.377Z,20.15
2022-09-07T08:51:24.210Z,20.29
2022-09-07T08:54:16.397Z,20.55
2022-09-07T09:00:14.321Z,20.91
2022-09-07T09:06:08.246Z,20.88
2022-09-07T09:09:08.891Z,20.95
2022-09-07T09:12:27.402Z,20.90
2022-09-07T09:15:21.418Z,21.07
2022-09-07T09:18:27.843Z,21.35
2022-09-07T09:21:19.217Z,21.23
2022-09-07T09:24:17.577Z,21.43
2022-09-07T09:27:03.193Z,21.43
2022-09-07T09:29:48.219Z,21.58
2022-09-07T09:32:41.351Z,21.81
2022-09-07T09:35:36.252Z,21.99
2022-09-07T09:38:36.429Z,22.18
2022-09-07T09:41:22.143Z,22.01
2022-09-07T09:44:16.037Z,22.26
2022-09-07T09:53:37.424Z,22.40
2022-09-07T09:56:35.160Z,22.52
2022-09-07T10:05:43.061Z,22.88
2022-09-07T10:08:29.498Z,23.09
2022-09-07T10:11:15.517Z,23.11
2022-09-07T10:14:01.749Z,23.16
2022-09-07T10:16:47.469Z,22.75
2022-09-07T10:19:35.904Z,22.70
2022-09-07T10:22:21.394Z,23.14
2022-09-07T10:25:28.666Z,23.29
2022-09-07T10:28:19.288Z,23.27
2022-09-07T10:31:52.475Z,23.06
2022-09-07T10:35:15.379Z,23.14
2022-09-07T10:38:06.521Z,22.99
2022-09-07T10:41:07.333Z,22.93
2022-09-07T10:43:53.771Z,22.91
2022-09-07T10:47:05.511Z,23.07
2022-09-07T10:53:41.444Z,23.41
2022-09-07T10:56:35.510Z,23.49
2022-09-07T11:00:10.239Z,23.64
2022-09-07T11:03:26.926Z,23.64
2022-09-07T11:06:24.987Z,23.59
2022-09-07T11:09:32.278Z,23.78
2022-09-07T11:12:28.248Z,23.84
2022-09-07T11:15:13.757Z,23.66
2022-09-07T11:18:05.821Z,23.73
2022-09-07T11:20:55.419Z,23.88
2022-09-07T11:23:54.856Z,23.98
2022-09-07T11:26:58.720Z,24.11
2022-09-07T11:29:48.885Z,24.14
2022-09-07T11:32:42.411Z,24.15
2022-09-07T11:35:43.470Z,24.24
2022-09-07T11:38:35.012Z,23.86
2022-09-07T11:41:34.611Z,23.72
2022-09-07T11:44:45.144Z,23.73
2022-09-07T11:47:43.063Z,23.72
2022-09-07T11:50:38.980Z,23.75
2022-09-07T11:53:35.188Z,24.01
2022-09-07T11:56:36.379Z,24.14
2022-09-07T11:59:44.890Z,24.20
2022-09-07T12:02:57.555Z,24.43
2022-09-07T12:05:50.031Z,24.59
2022-09-07T12:09:05.859Z,24.68
2022-09-07T12:12:17.594Z,24.66
2022-09-07T12:15:13.093Z,24.81
2022-09-07T12:18:11.281Z,25.00
2022-09-07T12:20:57.044Z,25.23
2022-09-07T12:23:46.339Z,25.29
2022-09-07T12:26:35.609Z,25.30
2022-09-07T12:29:23.908Z,24.97
2022-09-07T12:35:30.911Z,24.63
2022-09-07T12:38:19.080Z,24.70
2022-09-07T12:41:20.649Z,24.71
2022-09-07T12:44:13.003Z,24.86
2022-09-07T12:47:00.747Z,24.94
2022-09-07T12:50:42.693Z,24.85
2022-09-07T12:53:44.923Z,24.74
2022-09-07T12:56:35.176Z,24.40
2022-09-07T12:59:42.715Z,24.39
2022-09-07T13:02:56.751Z,24.23
2022-09-07T13:05:58.976Z,24.24
2022-09-07T13:08:50.166Z,24.23
2022-09-07T13:11:40.980Z,24.11
2022-09-07T13:14:28.991Z,24.08
2022-09-07T13:17:34.531Z,23.96
2022-09-07T13:20:23.996Z,24.05
2022-09-07T13:23:20.666Z,24.12
2022-09-07T13:26:10.644Z,24.05
2022-09-07T13:28:58.207Z,24.05
2022-09-07T13:31:58.618Z,24.21
2022-09-07T13:34:54.705Z,24.30
2022-09-07T13:37:52.188Z,24.13
2022-09-07T13:40:39.619Z,24.28
2022-09-07T13:43:25.123Z,24.19
2022-09-07T13:46:25.313Z,24.13
2022-09-07T13:49:13.788Z,24.14
2022-09-07T13:52:04.867Z,24.11
2022-09-07T13:55:05.077Z,24.00
2022-09-07T13:58:14.614Z,23.84
2022-09-07T14:01:22.721Z,23.69
2022-09-07T14:04:24.867Z,23.81
2022-09-07T14:07:20.178Z,23.75
2022-09-07T14:10:09.723Z,23.79
2022-09-07T14:13:07.520Z,23.75
2022-09-07T14:15:52.777Z,23.93
2022-09-07T14:18:40.204Z,24.10
2022-09-07T14:21:25.544Z,24.26
2022-09-07T14:24:34.071Z,24.40
2022-09-07T14:27:47.281Z,24.55
2022-09-07T14:30:36.253Z,24.56
2022-09-07T14:33:22.619Z,24.43
2022-09-07T14:36:29.451Z,24.46
2022-09-07T14:39:17.212Z,24.35
2022-09-07T14:42:03.770Z,24.35
2022-09-07T14:44:50.379Z,24.36
2022-09-07T14:47:35.955Z,24.40
2022-09-07T14:50:38.234Z,24.38
2022-09-07T14:53:38.906Z,24.30
2022-09-07T14:56:31.469Z,24.23
2022-09-07T14:59:43.623Z,24.26
2022-09-07T15:02:34.915Z,24.36
2022-09-07T15:05:26.369Z,24.48
2022-09-07T15:08:44.727Z,24.57
2022-09-07T15:11:33.386Z,24.66
2022-09-07T15:14:20.644Z,24.65
2022-09-07T15:20:35.932Z,24.99
2022-09-07T15:23:21.378Z,25.17
2022-09-07T15:27:02.056Z,25.19
2022-09-07T15:29:20.973Z,25.29
2022-09-07T15:32:09.993Z,25.28
2022-09-07T15:34:55.604Z,25.38
2022-09-07T15:41:18.272Z,25.07
2022-09-07T15:43:56.975Z,24.92
2022-09-07T15:47:41.966Z,24.72
2022-09-07T15:49:51.295Z,24.57
2022-09-07T15:52:37.075Z,24.49
2022-09-07T15:55:24.478Z,24.41
2022-09-07T15:58:12.334Z,24.37
2022-09-07T16:04:05.580Z,24.37
2022-09-07T16:06:50.634Z,24.35
2022-09-07T16:09:37.659Z,24.29
2022-09-07T16:15:27.973Z,24.14
2022-09-07T16:18:17.149Z,24.08
2022-09-07T16:21:13.580Z,24.06
2022-09-07T16:23:58.718Z,24.03
2022-09-07T16:26:43.870Z,23.99
2022-09-07T16:29:29.081Z,23.94
2022-09-07T16:35:20.006Z,23.90
2022-09-07T16:41:24.426Z,23.85
2022-09-07T16:44:11.441Z,23.84
2022-09-07T16:46:56.770Z,23.82
2022-09-07T16:49:42.103Z,23.78
2022-09-07T16:52:27.248Z,23.77
2022-09-07T16:55:12.567Z,23.74
2022-09-07T17:01:03.865Z,23.70
2022-09-07T17:03:49.851Z,23.66
2022-09-07T17:06:35.291Z,23.64
2022-09-07T17:09:20.725Z,23.62
2022-09-07T17:12:07.306Z,23.59
2022-09-07T17:14:53.101Z,23.56
2022-09-07T17:17:38.382Z,23.52
2022-09-07T17:20:25.073Z,23.49
2022-09-07T17:23:10.759Z,23.46
2022-09-07T17:26:10.328Z,23.41
2022-09-07T17:29:00.319Z,23.35
2022-09-07T17:34:51.665Z,23.23
2022-09-07T17:37:36.893Z,23.14
2022-09-07T17:40:23.474Z,23.07
2022-09-07T17:46:21.857Z,22.83
2022-09-07T17:49:12.096Z,22.71
2022-09-07T17:51:59.046Z,22.57
2022-09-07T17:54:44.359Z,22.44
2022-09-07T17:57:31.589Z,22.30
2022-09-07T18:00:17.075Z,22.16
2022-09-07T18:03:03.627Z,22.05
2022-09-07T18:05:54.101Z,21.97
2022-09-07T18:08:40.152Z,21.89
2022-09-07T18:14:34.544Z,21.72
2022-09-07T18:17:19.834Z,21.64
2022-09-07T18:20:05.589Z,21.60
2022-09-07T18:22:50.921Z,21.56
2022-09-07T18:25:37.179Z,21.53
2022-09-07T18:31:28.131Z,21.46
2022-09-07T18:34:13.416Z,21.42
2022-09-07T18:36:59.540Z,21.39
2022-09-07T18:39:46.581Z,21.37
2022-09-07T18:42:31.551Z,21.35
2022-09-07T18:45:32.263Z,21.31
2022-09-07T18:48:17.915Z,21.29
2022-09-07T18:51:03.651Z,21.31
2022-09-07T18:53:49.018Z,21.32
2022-09-07T18:56:36.723Z,21.31
2022-09-07T18:59:23.892Z,21.29
2022-09-07T19:02:10.590Z,21.26
2022-09-07T19:08:03.357Z,21.24
2022-09-07T19:10:49.099Z,21.25
2022-09-07T19:13:36.138Z,21.24
2022-09-07T19:16:21.775Z,21.23
2022-09-07T19:19:07.705Z,21.23
2022-09-07T19:21:54.477Z,21.22
2022-09-07T19:24:39.886Z,21.20
2022-09-07T19:27:26.964Z,21.17
2022-09-07T19:30:12.558Z,21.16
2022-09-07T19:33:02.086Z,21.14
2022-09-07T19:35:48.947Z,21.11
2022-09-07T19:38:34.330Z,21.12
2022-09-07T19:41:20.024Z,21.10
2022-09-07T19:44:05.195Z,21.09
2022-09-07T19:46:52.863Z,21.09
2022-09-07T19:49:38.388Z,21.07
2022-09-07T19:52:23.378Z,21.04
2022-09-07T19:55:09.607Z,21.04
2022-09-07T19:57:55.195Z,21.03
2022-09-07T20:00:41.659Z,21.00
2022-09-07T20:03:27.269Z,20.98
2022-09-07T20:06:17.760Z,20.97
2022-09-07T20:09:02.921Z,20.96
2022-09-07T20:11:48.411Z,20.94
2022-09-07T20:14:34.017Z,20.94
2022-09-07T20:17:19.051Z,20.90
2022-09-07T20:20:05.674Z,20.88
2022-09-07T20:22:51.315Z,20.83
2022-09-07T20:25:36.415Z,20.80
2022-09-07T20:28:22.018Z,20.75
2022-09-07T20:31:10.363Z,20.73
2022-09-07T20:33:56.875Z,20.72
2022-09-07T20:36:41.943Z,20.72
2022-09-07T20:39:27.035Z,20.69
2022-09-07T20:42:16.741Z,20.67
2022-09-07T20:45:02.267Z,20.65
2022-09-07T20:47:47.666Z,20.65
2022-09-07T20:50:33.289Z,20.64
2022-09-07T20:53:18.551Z,20.63
2022-09-07T20:56:09.609Z,20.59
2022-09-07T20:58:57.132Z,20.58
2022-09-07T21:01:42.478Z,20.53
2022-09-07T21:04:28.261Z,20.49
2022-09-07T21:07:16.426Z,20.46
2022-09-07T21:10:06.941Z,20.42
2022-09-07T21:12:53.209Z,20.37
2022-09-07T21:15:43.191Z,20.33
2022-09-07T21:18:28.918Z,20.28
2022-09-07T21:21:21.422Z,20.26
2022-09-07T21:27:21.527Z,20.22
2022-09-07T21:30:07.469Z,20.17
2022-09-07T21:32:52.750Z,20.15
2022-09-07T21:35:38.060Z,20.11
2022-09-07T21:38:23.468Z,20.12
2022-09-07T21:44:00.179Z,20.09
2022-09-07T21:46:45.740Z,20.12
2022-09-07T21:49:33.882Z,20.11
2022-09-07T21:52:20.416Z,20.10
2022-09-07T21:55:06.383Z,20.09
2022-09-07T21:57:51.594Z,20.07
2022-09-07T22:00:38.722Z,20.05
2022-09-07T22:03:28.382Z,20.03
2022-09-07T22:06:14.803Z,19.98
2022-09-07T22:09:01.394Z,19.93
2022-09-07T22:11:46.890Z,19.87
2022-09-07T22:14:31.890Z,19.82
2022-09-07T22:17:19.860Z,19.78
2022-09-07T22:20:05.571Z,19.73
2022-09-07T22:22:50.539Z,19.69
2022-09-07T22:25:35.755Z,19.64
2022-09-07T22:28:21.364Z,19.60
2022-09-07T22:31:16.968Z,19.58
2022-09-07T22:34:05.220Z,19.54
2022-09-07T22:36:51.114Z,19.52
2022-09-07T22:39:36.307Z,19.49
2022-09-07T22:42:21.485Z,19.46
2022-09-07T22:45:07.638Z,19.44
2022-09-07T22:47:52.912Z,19.41
2022-09-07T22:50:38.323Z,19.40
2022-09-07T22:53:23.684Z,19.39
2022-09-07T22:56:11.140Z,19.35
2022-09-07T22:58:59.277Z,19.32
2022-09-07T23:01:44.518Z,19.30
2022-09-07T23:04:31.914Z,19.29
2022-09-07T23:07:20.941Z,19.27
2022-09-07T23:10:06.727Z,19.24
2022-09-07T23:12:55.827Z,19.22
2022-09-07T23:15:41.356Z,19.20
2022-09-07T23:18:34.668Z,19.16
2022-09-07T23:21:21.190Z,19.12
2022-09-07T23:24:07.002Z,19.09
2022-09-07T23:26:52.242Z,19.07
2022-09-07T23:29:37.436Z,19.05
2022-09-07T23:32:22.484Z,19.05
2022-09-07T23:35:08.250Z,19.01
2022-09-07T23:37:53.768Z,18.97
2022-09-07T23:40:39.080Z,18.95
2022-09-07T23:43:27.290Z,18.90
2022-09-07T23:46:14.135Z,18.86
2022-09-07T23:48:59.784Z,18.82
2022-09-07T23:51:45.006Z,18.80
2022-09-07T23:54:30.656Z,18.75
2022-09-07T23:57:17.334Z,18.72
